Benkelman, NE (69021)

5:22 PM MDT on July 11, 2014 (GMT -0600)
KHMYKSBI2 Elev 3524 ft | 39.76 °N, 101.60 °W | Change Station

Current weather conditions updated 2 seconds ago

Clear
Clear
96.4 °F
Feels Like 94 °F
N
14.0
Wind Variable Wind from SSE
Gusts 23.0 mph

Tomorrow is forecast to be Much Cooler than today.

Today
High -- | Low -- °F
--% Chance of Precip.
Yesterday
High -- | Low -- °F
Precip. -- in
5:26 AM 8:16 PM
Full, 100% visible
Pressure 29.90 in
Visibility 10.0 miles
Clouds Clear
Heat Index 94 °F
Dew Point 54 °F
Humidity 24%
Rainfall 0.00 in
Snow Depth Not available.
UV 2.1 out of 12
Pollen 5.50 out of 12
Air Quality Not available.
Flu Activity Sporadic
METAR KSYF 112315Z AUTO 17014KT 10SM CLR 36/03 A2990 RMK AO2 T03590027

More Conditions Fewer Conditions

Pressure 29.90 in
Visibility 10.0 miles
Clouds Clear
Heat Index 94 °F
Dew Point 54 °F
Humidity 24%
Rainfall 0.00 in
Snow Depth Not available.
UV 2.1 out of 12
Pollen 5.50 out of 12
Air Quality Not available.
Flu Activity Sporadic
METAR KSYF 112315Z AUTO 17014KT 10SM CLR 36/03 A2990 RMK AO2 T03590027

More Conditions Fewer Conditions

10-Day Weather Forecast

Almanac

Astronomy

Jul. 11, 2014 Rise Set
Actual Time 5:26 AM MDT 8:16 PM MDT
Civil Twilight 4:54 AM MDT 8:48 PM MDT
Nautical Twilight 4:14 AM MDT 9:28 PM MDT
Astronomical Twilight 3:27 AM MDT 10:14 PM MDT
Moon 7:28 PM MDT 4:41 AM MDT
Length of Visible Light 15h 53m
Length of Day
14h 49m
Tomorrow will be 1m 10s shorter.
Full, 100% of the Moon is Illuminated
Today
Full
Jul 12
Full
Jul 18
Last Quarter
Jul 26
New
Aug 3
First Quarter

Today's Extremes

State Highs State Lows

Community

WunderPhotos

Upload Photos

1,732,587 photos uploaded!

WunderBlogs® & News

Nearby

Snow Depth

Station Depth Elevation
No new snow has been reported.

Earthquake Activity

City Distance Mag. Time & Date
No recent earthquake activity has been reported nearby.
Minimum magnitude displayed is 2.5.

Coastal Water Temperatures

Place Temperature
No Stations Reporting

Nearby Weather Stations

Station Location Temp. Heat Index Dew Point Humidity Wind Precip. Elev Updated Type
Bird City, KS 96.4 °F 94 °F 54 °F 24% SSE  at  14.0 mph 0.00 in / hr 3524 ft 6:22 PM CDT Rapid Fire
MesoWest JOHNSON FARM , Champion, NE 88 °F 93 °F 71 °F 56% NE  at  9 mph 0.00 in / hr 3340 ft 4:00 PM MDT MADIS
South Center on Hwy 36, St Francis, KS 100.6 °F 96 °F 41 °F 13% SE  at  10.0 mph 0.00 in / hr 3350 ft 6:20 PM CDT Normal

Show More Stations Show Fewer Stations